sensor_id;sensor_type;location;lat;lon;timestamp;P1;durP1;ratioP1;P2;durP2;ratioP2
12591;SDS011;6361;52.120;5.108;2022-12-13T00:01:19;27.52;;;14.77;;
12591;SDS011;6361;52.120;5.108;2022-12-13T00:03:45;34.45;;;16.58;;
12591;SDS011;6361;52.120;5.108;2022-12-13T00:06:10;26.33;;;14.60;;
12591;SDS011;6361;52.120;5.108;2022-12-13T00:08:36;29.23;;;15.75;;
12591;SDS011;6361;52.120;5.108;2022-12-13T00:11:03;30.10;;;15.20;;
12591;SDS011;6361;52.120;5.108;2022-12-13T00:13:30;32.65;;;16.40;;
12591;SDS011;6361;52.120;5.108;2022-12-13T00:16:00;30.17;;;15.90;;
12591;SDS011;6361;52.120;5.108;2022-12-13T00:18:28;30.52;;;16.50;;
12591;SDS011;6361;52.120;5.108;2022-12-13T00:20:54;30.90;;;16.23;;
12591;SDS011;6361;52.120;5.108;2022-12-13T00:23:19;29.42;;;15.20;;
12591;SDS011;6361;52.120;5.108;2022-12-13T00:25:45;31.92;;;16.05;;
12591;SDS011;6361;52.120;5.108;2022-12-13T00:28:10;29.35;;;15.63;;
12591;SDS011;6361;52.120;5.108;2022-12-13T00:30:36;30.10;;;16.38;;
12591;SDS011;6361;52.120;5.108;2022-12-13T00:33:02;30.20;;;16.27;;
12591;SDS011;6361;52.120;5.108;2022-12-13T00:35:27;26.08;;;15.55;;
12591;SDS011;6361;52.120;5.108;2022-12-13T00:37:53;34.33;;;16.83;;
12591;SDS011;6361;52.120;5.108;2022-12-13T00:40:18;30.00;;;16.02;;
12591;SDS011;6361;52.120;5.108;2022-12-13T00:42:43;29.67;;;15.48;;
12591;SDS011;6361;52.120;5.108;2022-12-13T00:45:09;31.75;;;15.80;;
12591;SDS011;6361;52.120;5.108;2022-12-13T00:47:35;29.48;;;15.25;;
12591;SDS011;6361;52.120;5.108;2022-12-13T00:50:01;30.70;;;15.85;;
12591;SDS011;6361;52.120;5.108;2022-12-13T00:52:27;30.05;;;16.67;;
12591;SDS011;6361;52.120;5.108;2022-12-13T00:54:53;28.45;;;15.25;;
12591;SDS011;6361;52.120;5.108;2022-12-13T00:57:18;27.77;;;15.90;;
12591;SDS011;6361;52.120;5.108;2022-12-13T00:59:43;31.73;;;16.42;;
12591;SDS011;6361;52.120;5.108;2022-12-13T01:02:09;29.60;;;16.50;;
12591;SDS011;6361;52.120;5.108;2022-12-13T01:04:34;32.38;;;17.08;;
12591;SDS011;6361;52.120;5.108;2022-12-13T01:07:00;31.80;;;16.75;;
12591;SDS011;6361;52.120;5.108;2022-12-13T01:09:26;34.05;;;15.85;;
12591;SDS011;6361;52.120;5.108;2022-12-13T01:12:00;32.53;;;16.27;;
12591;SDS011;6361;52.120;5.108;2022-12-13T01:14:28;29.30;;;16.27;;
12591;SDS011;6361;52.120;5.108;2022-12-13T01:16:54;32.75;;;16.20;;
12591;SDS011;6361;52.120;5.108;2022-12-13T01:19:20;34.55;;;16.85;;
12591;SDS011;6361;52.120;5.108;2022-12-13T01:21:49;29.92;;;15.88;;
12591;SDS011;6361;52.120;5.108;2022-12-13T01:24:18;32.83;;;15.88;;
12591;SDS011;6361;52.120;5.108;2022-12-13T01:26:45;29.17;;;15.60;;
12591;SDS011;6361;52.120;5.108;2022-12-13T01:29:11;31.33;;;16.27;;
12591;SDS011;6361;52.120;5.108;2022-12-13T01:31:36;31.98;;;16.45;;
12591;SDS011;6361;52.120;5.108;2022-12-13T01:34:05;31.95;;;16.73;;
12591;SDS011;6361;52.120;5.108;2022-12-13T01:36:34;30.65;;;16.40;;
12591;SDS011;6361;52.120;5.108;2022-12-13T01:39:00;30.95;;;16.77;;
12591;SDS011;6361;52.120;5.108;2022-12-13T01:41:27;35.92;;;17.08;;
12591;SDS011;6361;52.120;5.108;2022-12-13T01:43:53;34.60;;;16.85;;
12591;SDS011;6361;52.120;5.108;2022-12-13T01:46:25;31.25;;;16.13;;
12591;SDS011;6361;52.120;5.108;2022-12-13T01:51:37;32.50;;;16.93;;
12591;SDS011;6361;52.120;5.108;2022-12-13T01:54:04;32.63;;;16.75;;
12591;SDS011;6361;52.120;5.108;2022-12-13T01:56:32;30.30;;;15.95;;
12591;SDS011;6361;52.120;5.108;2022-12-13T01:59:01;30.17;;;16.45;;
12591;SDS011;6361;52.120;5.108;2022-12-13T02:01:27;28.20;;;15.55;;
12591;SDS011;6361;52.120;5.108;2022-12-13T02:03:52;32.58;;;16.55;;
12591;SDS011;6361;52.120;5.108;2022-12-13T02:06:19;30.35;;;15.90;;
12591;SDS011;6361;52.120;5.108;2022-12-13T02:08:50;32.28;;;15.93;;
12591;SDS011;6361;52.120;5.108;2022-12-13T02:11:15;30.75;;;16.40;;
12591;SDS011;6361;52.120;5.108;2022-12-13T02:13:41;29.30;;;15.80;;
12591;SDS011;6361;52.120;5.108;2022-12-13T02:16:26;32.92;;;16.35;;
12591;SDS011;6361;52.120;5.108;2022-12-13T02:30:18;33.30;;;17.42;;
12591;SDS011;6361;52.120;5.108;2022-12-13T02:38:02;33.10;;;17.38;;
12591;SDS011;6361;52.120;5.108;2022-12-13T02:40:43;36.05;;;18.15;;
12591;SDS011;6361;52.120;5.108;2022-12-13T02:43:19;37.20;;;16.92;;
12591;SDS011;6361;52.120;5.108;2022-12-13T02:45:48;32.33;;;17.17;;
12591;SDS011;6361;52.120;5.108;2022-12-13T02:48:20;33.10;;;17.17;;
12591;SDS011;6361;52.120;5.108;2022-12-13T02:50:49;34.22;;;17.40;;
12591;SDS011;6361;52.120;5.108;2022-12-13T02:53:15;35.00;;;18.05;;
12591;SDS011;6361;52.120;5.108;2022-12-13T02:55:41;32.50;;;16.83;;
12591;SDS011;6361;52.120;5.108;2022-12-13T02:58:10;30.05;;;17.13;;
12591;SDS011;6361;52.120;5.108;2022-12-13T03:03:38;36.08;;;17.50;;
12591;SDS011;6361;52.120;5.108;2022-12-13T03:17:33;32.70;;;16.52;;
12591;SDS011;6361;52.120;5.108;2022-12-13T03:20:02;38.53;;;17.30;;
12591;SDS011;6361;52.120;5.108;2022-12-13T03:22:28;32.58;;;16.67;;
12591;SDS011;6361;52.120;5.108;2022-12-13T03:24:58;35.38;;;17.05;;
12591;SDS011;6361;52.120;5.108;2022-12-13T03:27:23;35.03;;;16.60;;
12591;SDS011;6361;52.120;5.108;2022-12-13T03:29:49;31.75;;;16.02;;
12591;SDS011;6361;52.120;5.108;2022-12-13T03:32:14;27.40;;;16.25;;
12591;SDS011;6361;52.120;5.108;2022-12-13T03:34:40;33.50;;;17.95;;
12591;SDS011;6361;52.120;5.108;2022-12-13T03:37:05;33.47;;;17.67;;
12591;SDS011;6361;52.120;5.108;2022-12-13T03:39:30;34.17;;;16.92;;
12591;SDS011;6361;52.120;5.108;2022-12-13T03:41:56;33.10;;;17.38;;
12591;SDS011;6361;52.120;5.108;2022-12-13T03:44:21;33.10;;;17.17;;
12591;SDS011;6361;52.120;5.108;2022-12-13T03:46:46;35.58;;;17.58;;
12591;SDS011;6361;52.120;5.108;2022-12-13T03:49:12;35.25;;;18.00;;
12591;SDS011;6361;52.120;5.108;2022-12-13T03:51:37;35.67;;;17.33;;
12591;SDS011;6361;52.120;5.108;2022-12-13T03:54:04;34.22;;;17.30;;
12591;SDS011;6361;52.120;5.108;2022-12-13T03:56:29;38.65;;;18.48;;
12591;SDS011;6361;52.120;5.108;2022-12-13T03:58:54;34.97;;;17.48;;
12591;SDS011;6361;52.120;5.108;2022-12-13T04:01:20;33.55;;;17.95;;
12591;SDS011;6361;52.120;5.108;2022-12-13T04:03:46;33.17;;;17.38;;
12591;SDS011;6361;52.120;5.108;2022-12-13T04:06:12;32.92;;;17.80;;
12591;SDS011;6361;52.120;5.108;2022-12-13T04:08:38;33.85;;;17.48;;
12591;SDS011;6361;52.120;5.108;2022-12-13T04:11:03;32.45;;;17.13;;
12591;SDS011;6361;52.120;5.108;2022-12-13T04:13:48;30.33;;;16.17;;
12591;SDS011;6361;52.120;5.108;2022-12-13T04:16:13;38.03;;;18.10;;
12591;SDS011;6361;52.120;5.108;2022-12-13T04:18:38;35.17;;;17.90;;
12591;SDS011;6361;52.120;5.108;2022-12-13T04:21:04;27.88;;;15.52;;
12591;SDS011;6361;52.120;5.108;2022-12-13T04:23:29;30.33;;;16.55;;
12591;SDS011;6361;52.120;5.108;2022-12-13T04:25:55;33.22;;;17.92;;
12591;SDS011;6361;52.120;5.108;2022-12-13T04:28:21;50.80;;;29.83;;
12591;SDS011;6361;52.120;5.108;2022-12-13T04:30:46;42.15;;;24.42;;
12591;SDS011;6361;52.120;5.108;2022-12-13T04:33:12;38.83;;;18.50;;
12591;SDS011;6361;52.120;5.108;2022-12-13T04:35:37;35.88;;;17.90;;
12591;SDS011;6361;52.120;5.108;2022-12-13T04:38:02;34.45;;;19.45;;
12591;SDS011;6361;52.120;5.108;2022-12-13T04:40:28;33.92;;;17.80;;
12591;SDS011;6361;52.120;5.108;2022-12-13T04:42:53;33.85;;;17.45;;
12591;SDS011;6361;52.120;5.108;2022-12-13T04:45:19;33.13;;;17.33;;
12591;SDS011;6361;52.120;5.108;2022-12-13T04:47:44;28.58;;;15.20;;
12591;SDS011;6361;52.120;5.108;2022-12-13T04:50:10;32.70;;;17.25;;
12591;SDS011;6361;52.120;5.108;2022-12-13T04:52:35;30.67;;;17.20;;
12591;SDS011;6361;52.120;5.108;2022-12-13T04:55:01;36.78;;;18.42;;
12591;SDS011;6361;52.120;5.108;2022-12-13T04:57:27;37.67;;;18.48;;
12591;SDS011;6361;52.120;5.108;2022-12-13T04:59:52;27.38;;;15.77;;
12591;SDS011;6361;52.120;5.108;2022-12-13T05:02:18;32.95;;;17.48;;
12591;SDS011;6361;52.120;5.108;2022-12-13T05:04:44;40.15;;;18.05;;
12591;SDS011;6361;52.120;5.108;2022-12-13T05:07:09;30.67;;;17.17;;
12591;SDS011;6361;52.120;5.108;2022-12-13T05:09:35;31.58;;;17.75;;
12591;SDS011;6361;52.120;5.108;2022-12-13T05:12:00;34.65;;;17.63;;
12591;SDS011;6361;52.120;5.108;2022-12-13T05:14:25;37.63;;;17.83;;
12591;SDS011;6361;52.120;5.108;2022-12-13T05:16:51;33.42;;;16.95;;
12591;SDS011;6361;52.120;5.108;2022-12-13T05:19:17;32.30;;;17.65;;
12591;SDS011;6361;52.120;5.108;2022-12-13T05:21:42;32.33;;;18.00;;
12591;SDS011;6361;52.120;5.108;2022-12-13T05:24:07;26.42;;;15.32;;
12591;SDS011;6361;52.120;5.108;2022-12-13T05:26:34;34.70;;;18.00;;
12591;SDS011;6361;52.120;5.108;2022-12-13T05:28:59;37.85;;;18.52;;
12591;SDS011;6361;52.120;5.108;2022-12-13T05:31:25;33.92;;;18.05;;
12591;SDS011;6361;52.120;5.108;2022-12-13T05:33:50;35.97;;;18.23;;
12591;SDS011;6361;52.120;5.108;2022-12-13T05:36:16;35.25;;;19.10;;
12591;SDS011;6361;52.120;5.108;2022-12-13T05:38:41;38.08;;;18.17;;
12591;SDS011;6361;52.120;5.108;2022-12-13T05:41:08;33.75;;;19.02;;
12591;SDS011;6361;52.120;5.108;2022-12-13T05:43:38;38.22;;;19.50;;
12591;SDS011;6361;52.120;5.108;2022-12-13T05:46:03;36.60;;;19.30;;
12591;SDS011;6361;52.120;5.108;2022-12-13T05:48:28;35.95;;;18.45;;
12591;SDS011;6361;52.120;5.108;2022-12-13T05:50:54;34.70;;;18.83;;
12591;SDS011;6361;52.120;5.108;2022-12-13T05:53:19;36.13;;;18.10;;
12591;SDS011;6361;52.120;5.108;2022-12-13T05:55:45;38.25;;;18.58;;
12591;SDS011;6361;52.120;5.108;2022-12-13T05:58:10;41.22;;;19.27;;
12591;SDS011;6361;52.120;5.108;2022-12-13T06:00:37;38.40;;;19.02;;
12591;SDS011;6361;52.120;5.108;2022-12-13T06:03:03;37.40;;;18.98;;
12591;SDS011;6361;52.120;5.108;2022-12-13T06:05:28;35.83;;;18.83;;
12591;SDS011;6361;52.120;5.108;2022-12-13T06:07:54;37.90;;;19.75;;
12591;SDS011;6361;52.120;5.108;2022-12-13T06:10:20;34.05;;;18.75;;
12591;SDS011;6361;52.120;5.108;2022-12-13T06:12:46;36.58;;;18.85;;
12591;SDS011;6361;52.120;5.108;2022-12-13T06:15:12;34.88;;;18.80;;
12591;SDS011;6361;52.120;5.108;2022-12-13T06:17:38;37.33;;;19.02;;
12591;SDS011;6361;52.120;5.108;2022-12-13T06:20:04;39.88;;;19.92;;
12591;SDS011;6361;52.120;5.108;2022-12-13T06:22:30;39.85;;;19.27;;
12591;SDS011;6361;52.120;5.108;2022-12-13T06:24:56;40.22;;;18.95;;
12591;SDS011;6361;52.120;5.108;2022-12-13T06:27:22;42.03;;;21.95;;
12591;SDS011;6361;52.120;5.108;2022-12-13T06:29:48;46.33;;;26.85;;
12591;SDS011;6361;52.120;5.108;2022-12-13T06:32:13;41.60;;;21.60;;
12591;SDS011;6361;52.120;5.108;2022-12-13T06:34:39;37.00;;;19.15;;
12591;SDS011;6361;52.120;5.108;2022-12-13T06:37:05;36.33;;;18.77;;
12591;SDS011;6361;52.120;5.108;2022-12-13T06:39:32;39.03;;;19.15;;
12591;SDS011;6361;52.120;5.108;2022-12-13T06:41:57;39.00;;;19.88;;
12591;SDS011;6361;52.120;5.108;2022-12-13T06:44:23;39.42;;;19.98;;
12591;SDS011;6361;52.120;5.108;2022-12-13T06:46:48;39.08;;;20.25;;
12591;SDS011;6361;52.120;5.108;2022-12-13T06:49:14;36.50;;;19.30;;
12591;SDS011;6361;52.120;5.108;2022-12-13T06:51:39;36.50;;;18.98;;
12591;SDS011;6361;52.120;5.108;2022-12-13T06:54:04;38.65;;;19.58;;
12591;SDS011;6361;52.120;5.108;2022-12-13T06:56:30;36.15;;;19.10;;
12591;SDS011;6361;52.120;5.108;2022-12-13T06:58:56;37.13;;;18.75;;
12591;SDS011;6361;52.120;5.108;2022-12-13T07:01:22;40.03;;;20.60;;
12591;SDS011;6361;52.120;5.108;2022-12-13T07:03:48;39.70;;;20.92;;
12591;SDS011;6361;52.120;5.108;2022-12-13T07:06:19;38.38;;;19.27;;
12591;SDS011;6361;52.120;5.108;2022-12-13T07:08:50;38.38;;;19.67;;
12591;SDS011;6361;52.120;5.108;2022-12-13T07:11:19;33.90;;;18.73;;
12591;SDS011;6361;52.120;5.108;2022-12-13T07:13:46;39.78;;;19.13;;
12591;SDS011;6361;52.120;5.108;2022-12-13T07:16:12;37.78;;;18.95;;
12591;SDS011;6361;52.120;5.108;2022-12-13T07:18:37;34.05;;;18.17;;
12591;SDS011;6361;52.120;5.108;2022-12-13T07:21:03;39.00;;;19.63;;
12591;SDS011;6361;52.120;5.108;2022-12-13T07:23:36;37.33;;;19.25;;
12591;SDS011;6361;52.120;5.108;2022-12-13T07:26:03;36.28;;;19.02;;
12591;SDS011;6361;52.120;5.108;2022-12-13T07:28:31;35.67;;;19.55;;
12591;SDS011;6361;52.120;5.108;2022-12-13T07:30:58;40.40;;;18.45;;
12591;SDS011;6361;52.120;5.108;2022-12-13T07:33:25;33.53;;;18.77;;
12591;SDS011;6361;52.120;5.108;2022-12-13T07:35:50;38.50;;;19.13;;
12591;SDS011;6361;52.120;5.108;2022-12-13T07:38:15;40.13;;;20.67;;
12591;SDS011;6361;52.120;5.108;2022-12-13T07:40:40;48.75;;;25.55;;
12591;SDS011;6361;52.120;5.108;2022-12-13T07:43:06;39.67;;;21.27;;
12591;SDS011;6361;52.120;5.108;2022-12-13T07:45:31;34.60;;;18.77;;
12591;SDS011;6361;52.120;5.108;2022-12-13T07:47:57;34.03;;;18.83;;
12591;SDS011;6361;52.120;5.108;2022-12-13T07:50:23;38.20;;;19.27;;
12591;SDS011;6361;52.120;5.108;2022-12-13T07:52:49;34.33;;;19.02;;
12591;SDS011;6361;52.120;5.108;2022-12-13T07:55:15;37.15;;;19.42;;
12591;SDS011;6361;52.120;5.108;2022-12-13T07:57:41;38.67;;;19.83;;
12591;SDS011;6361;52.120;5.108;2022-12-13T08:00:07;36.10;;;19.60;;
12591;SDS011;6361;52.120;5.108;2022-12-13T08:02:33;36.88;;;19.45;;
12591;SDS011;6361;52.120;5.108;2022-12-13T08:04:59;38.20;;;19.98;;
12591;SDS011;6361;52.120;5.108;2022-12-13T08:07:25;36.00;;;18.80;;
12591;SDS011;6361;52.120;5.108;2022-12-13T08:09:50;37.67;;;19.40;;
12591;SDS011;6361;52.120;5.108;2022-12-13T08:12:15;37.85;;;20.30;;
12591;SDS011;6361;52.120;5.108;2022-12-13T08:14:41;35.13;;;19.17;;
12591;SDS011;6361;52.120;5.108;2022-12-13T08:17:06;38.63;;;19.95;;
12591;SDS011;6361;52.120;5.108;2022-12-13T08:19:32;37.50;;;18.55;;
12591;SDS011;6361;52.120;5.108;2022-12-13T08:21:57;38.35;;;19.27;;
12591;SDS011;6361;52.120;5.108;2022-12-13T08:24:23;38.80;;;19.33;;
12591;SDS011;6361;52.120;5.108;2022-12-13T08:26:52;38.03;;;19.88;;
12591;SDS011;6361;52.120;5.108;2022-12-13T08:29:18;41.60;;;20.02;;
12591;SDS011;6361;52.120;5.108;2022-12-13T08:31:43;37.50;;;20.00;;
12591;SDS011;6361;52.120;5.108;2022-12-13T08:34:09;37.03;;;19.35;;
12591;SDS011;6361;52.120;5.108;2022-12-13T08:36:34;40.15;;;20.15;;
12591;SDS011;6361;52.120;5.108;2022-12-13T08:39:00;39.00;;;19.75;;
12591;SDS011;6361;52.120;5.108;2022-12-13T08:41:27;39.00;;;20.33;;
12591;SDS011;6361;52.120;5.108;2022-12-13T08:43:52;41.20;;;20.80;;
12591;SDS011;6361;52.120;5.108;2022-12-13T08:46:18;40.25;;;20.45;;
12591;SDS011;6361;52.120;5.108;2022-12-13T08:48:43;46.30;;;21.92;;
12591;SDS011;6361;52.120;5.108;2022-12-13T08:51:10;43.17;;;22.15;;
12591;SDS011;6361;52.120;5.108;2022-12-13T08:53:37;40.78;;;22.48;;
12591;SDS011;6361;52.120;5.108;2022-12-13T08:56:03;43.53;;;21.25;;
12591;SDS011;6361;52.120;5.108;2022-12-13T08:58:30;41.63;;;21.40;;
12591;SDS011;6361;52.120;5.108;2022-12-13T09:00:55;38.88;;;20.92;;
12591;SDS011;6361;52.120;5.108;2022-12-13T09:03:21;36.88;;;20.48;;
12591;SDS011;6361;52.120;5.108;2022-12-13T09:05:46;34.88;;;18.30;;
12591;SDS011;6361;52.120;5.108;2022-12-13T09:08:12;40.22;;;19.98;;
12591;SDS011;6361;52.120;5.108;2022-12-13T09:10:37;38.53;;;19.45;;
12591;SDS011;6361;52.120;5.108;2022-12-13T09:13:02;40.67;;;21.08;;
12591;SDS011;6361;52.120;5.108;2022-12-13T09:15:28;40.45;;;21.40;;
12591;SDS011;6361;52.120;5.108;2022-12-13T09:17:56;37.97;;;21.00;;
12591;SDS011;6361;52.120;5.108;2022-12-13T09:20:21;42.78;;;21.45;;
12591;SDS011;6361;52.120;5.108;2022-12-13T09:22:47;40.00;;;21.40;;
12591;SDS011;6361;52.120;5.108;2022-12-13T09:25:12;43.85;;;22.65;;
12591;SDS011;6361;52.120;5.108;2022-12-13T09:27:37;41.30;;;22.67;;
12591;SDS011;6361;52.120;5.108;2022-12-13T09:30:03;45.10;;;22.35;;
12591;SDS011;6361;52.120;5.108;2022-12-13T09:32:30;46.13;;;23.02;;
12591;SDS011;6361;52.120;5.108;2022-12-13T09:34:55;45.08;;;23.60;;
12591;SDS011;6361;52.120;5.108;2022-12-13T09:37:21;43.60;;;23.90;;
12591;SDS011;6361;52.120;5.108;2022-12-13T09:39:46;46.25;;;23.92;;
12591;SDS011;6361;52.120;5.108;2022-12-13T09:42:16;47.63;;;23.67;;
12591;SDS011;6361;52.120;5.108;2022-12-13T09:44:47;45.92;;;23.63;;
12591;SDS011;6361;52.120;5.108;2022-12-13T09:47:21;47.72;;;24.60;;
12591;SDS011;6361;52.120;5.108;2022-12-13T09:49:51;44.97;;;23.50;;
12591;SDS011;6361;52.120;5.108;2022-12-13T09:52:17;47.53;;;24.48;;
12591;SDS011;6361;52.120;5.108;2022-12-13T09:54:43;45.95;;;24.05;;
12591;SDS011;6361;52.120;5.108;2022-12-13T09:57:20;51.38;;;24.90;;
12591;SDS011;6361;52.120;5.108;2022-12-13T09:59:49;48.25;;;24.15;;
12591;SDS011;6361;52.120;5.108;2022-12-13T10:02:16;44.75;;;23.33;;
12591;SDS011;6361;52.120;5.108;2022-12-13T10:04:45;45.28;;;24.15;;
12591;SDS011;6361;52.120;5.108;2022-12-13T10:07:20;47.13;;;25.13;;
12591;SDS011;6361;52.120;5.108;2022-12-13T10:09:47;49.42;;;25.55;;
12591;SDS011;6361;52.120;5.108;2022-12-13T10:12:14;53.30;;;26.13;;
12591;SDS011;6361;52.120;5.108;2022-12-13T10:14:46;47.97;;;25.60;;
12591;SDS011;6361;52.120;5.108;2022-12-13T10:17:16;54.75;;;25.95;;
12591;SDS011;6361;52.120;5.108;2022-12-13T10:19:43;48.50;;;25.52;;
12591;SDS011;6361;52.120;5.108;2022-12-13T10:22:11;52.38;;;25.73;;
12591;SDS011;6361;52.120;5.108;2022-12-13T10:27:26;46.17;;;24.48;;
12591;SDS011;6361;52.120;5.108;2022-12-13T10:32:30;51.65;;;24.80;;
12591;SDS011;6361;52.120;5.108;2022-12-13T10:35:00;45.83;;;24.85;;
12591;SDS011;6361;52.120;5.108;2022-12-13T10:37:36;52.95;;;24.90;;
12591;SDS011;6361;52.120;5.108;2022-12-13T10:40:01;46.17;;;24.42;;
12591;SDS011;6361;52.120;5.108;2022-12-13T10:42:27;47.63;;;24.00;;
12591;SDS011;6361;52.120;5.108;2022-12-13T10:45:13;47.63;;;25.85;;
12591;SDS011;6361;52.120;5.108;2022-12-13T10:47:40;48.33;;;24.83;;
12591;SDS011;6361;52.120;5.108;2022-12-13T10:50:20;44.63;;;23.17;;
12591;SDS011;6361;52.120;5.108;2022-12-13T10:52:48;41.83;;;22.60;;
12591;SDS011;6361;52.120;5.108;2022-12-13T10:57:51;46.35;;;23.35;;
12591;SDS011;6361;52.120;5.108;2022-12-13T11:03:29;40.22;;;21.73;;
12591;SDS011;6361;52.120;5.108;2022-12-13T11:08:35;46.05;;;23.75;;
12591;SDS011;6361;52.120;5.108;2022-12-13T11:11:01;43.80;;;22.52;;
12591;SDS011;6361;52.120;5.108;2022-12-13T11:13:35;43.40;;;23.40;;
12591;SDS011;6361;52.120;5.108;2022-12-13T11:16:03;43.28;;;23.73;;
12591;SDS011;6361;52.120;5.108;2022-12-13T11:18:33;40.47;;;22.30;;
12591;SDS011;6361;52.120;5.108;2022-12-13T11:21:00;41.35;;;22.27;;
12591;SDS011;6361;52.120;5.108;2022-12-13T11:25:57;42.20;;;22.85;;
12591;SDS011;6361;52.120;5.108;2022-12-13T11:28:32;39.17;;;21.45;;
12591;SDS011;6361;52.120;5.108;2022-12-13T11:39:42;43.80;;;21.67;;
12591;SDS011;6361;52.120;5.108;2022-12-13T11:50:31;40.63;;;22.67;;
12591;SDS011;6361;52.120;5.108;2022-12-13T11:53:09;42.90;;;22.98;;
12591;SDS011;6361;52.120;5.108;2022-12-13T11:55:41;44.10;;;23.27;;
12591;SDS011;6361;52.120;5.108;2022-12-13T12:00:56;37.60;;;20.63;;
12591;SDS011;6361;52.120;5.108;2022-12-13T12:03:45;41.67;;;22.10;;
12591;SDS011;6361;52.120;5.108;2022-12-13T12:06:19;36.63;;;21.33;;
12591;SDS011;6361;52.120;5.108;2022-12-13T12:08:55;35.15;;;20.02;;
12591;SDS011;6361;52.120;5.108;2022-12-13T12:19:17;40.40;;;21.35;;
12591;SDS011;6361;52.120;5.108;2022-12-13T12:27:48;36.83;;;20.20;;
12591;SDS011;6361;52.120;5.108;2022-12-13T12:30:19;36.25;;;20.73;;
12591;SDS011;6361;52.120;5.108;2022-12-13T12:43:33;38.30;;;20.85;;
12591;SDS011;6361;52.120;5.108;2022-12-13T13:01:58;38.15;;;21.73;;
12591;SDS011;6361;52.120;5.108;2022-12-13T13:04:47;38.30;;;22.10;;
12591;SDS011;6361;52.120;5.108;2022-12-13T13:07:21;35.25;;;20.55;;
12591;SDS011;6361;52.120;5.108;2022-12-13T13:09:50;44.22;;;24.27;;
12591;SDS011;6361;52.120;5.108;2022-12-13T13:12:16;40.88;;;23.55;;
12591;SDS011;6361;52.120;5.108;2022-12-13T13:14:42;43.95;;;22.23;;
12591;SDS011;6361;52.120;5.108;2022-12-13T13:22:51;41.80;;;22.02;;
12591;SDS011;6361;52.120;5.108;2022-12-13T13:28:15;33.75;;;19.35;;
12591;SDS011;6361;52.120;5.108;2022-12-13T13:31:01;35.85;;;20.23;;
12591;SDS011;6361;52.120;5.108;2022-12-13T13:33:45;34.67;;;19.23;;
12591;SDS011;6361;52.120;5.108;2022-12-13T13:39:13;42.13;;;21.40;;
12591;SDS011;6361;52.120;5.108;2022-12-13T13:41:40;39.55;;;21.65;;
12591;SDS011;6361;52.120;5.108;2022-12-13T13:44:51;36.83;;;20.58;;
12591;SDS011;6361;52.120;5.108;2022-12-13T13:49:54;38.08;;;20.85;;
12591;SDS011;6361;52.120;5.108;2022-12-13T13:52:36;38.97;;;21.13;;
12591;SDS011;6361;52.120;5.108;2022-12-13T14:11:50;50.13;;;25.05;;
12591;SDS011;6361;52.120;5.108;2022-12-13T14:14:58;63.05;;;28.13;;
12591;SDS011;6361;52.120;5.108;2022-12-13T14:29:03;65.45;;;31.60;;
12591;SDS011;6361;52.120;5.108;2022-12-13T14:31:42;66.85;;;31.13;;
12591;SDS011;6361;52.120;5.108;2022-12-13T14:34:16;57.72;;;28.50;;
12591;SDS011;6361;52.120;5.108;2022-12-13T14:36:48;52.83;;;26.67;;
12591;SDS011;6361;52.120;5.108;2022-12-13T14:39:28;55.78;;;28.15;;
12591;SDS011;6361;52.120;5.108;2022-12-13T14:41:56;51.72;;;25.92;;
12591;SDS011;6361;52.120;5.108;2022-12-13T14:47:05;52.45;;;26.38;;
12591;SDS011;6361;52.120;5.108;2022-12-13T14:49:35;50.25;;;25.70;;
12591;SDS011;6361;52.120;5.108;2022-12-13T14:54:31;52.95;;;26.08;;
12591;SDS011;6361;52.120;5.108;2022-12-13T14:57:05;48.20;;;25.65;;
12591;SDS011;6361;52.120;5.108;2022-12-13T14:59:30;49.38;;;25.85;;
12591;SDS011;6361;52.120;5.108;2022-12-13T15:02:01;49.92;;;26.30;;
12591;SDS011;6361;52.120;5.108;2022-12-13T15:04:30;51.58;;;26.98;;
12591;SDS011;6361;52.120;5.108;2022-12-13T15:07:07;50.83;;;26.63;;
12591;SDS011;6361;52.120;5.108;2022-12-13T15:09:39;47.60;;;25.25;;
12591;SDS011;6361;52.120;5.108;2022-12-13T15:12:13;48.40;;;25.17;;
12591;SDS011;6361;52.120;5.108;2022-12-13T15:14:41;44.83;;;24.60;;
12591;SDS011;6361;52.120;5.108;2022-12-13T15:17:12;51.33;;;25.70;;
12591;SDS011;6361;52.120;5.108;2022-12-13T15:19:46;50.65;;;25.95;;
12591;SDS011;6361;52.120;5.108;2022-12-13T15:22:13;46.70;;;25.30;;
12591;SDS011;6361;52.120;5.108;2022-12-13T15:24:39;45.13;;;24.80;;
12591;SDS011;6361;52.120;5.108;2022-12-13T15:27:06;49.53;;;26.50;;
12591;SDS011;6361;52.120;5.108;2022-12-13T15:29:32;47.00;;;25.23;;
12591;SDS011;6361;52.120;5.108;2022-12-13T15:31:58;46.35;;;25.13;;
12591;SDS011;6361;52.120;5.108;2022-12-13T15:36:53;44.13;;;23.42;;
12591;SDS011;6361;52.120;5.108;2022-12-13T15:39:20;42.30;;;23.85;;
12591;SDS011;6361;52.120;5.108;2022-12-13T15:41:46;43.88;;;24.00;;
12591;SDS011;6361;52.120;5.108;2022-12-13T15:44:16;49.20;;;24.58;;
12591;SDS011;6361;52.120;5.108;2022-12-13T15:46:45;49.00;;;24.42;;
12591;SDS011;6361;52.120;5.108;2022-12-13T15:49:19;48.65;;;25.20;;
12591;SDS011;6361;52.120;5.108;2022-12-13T15:52:04;48.25;;;24.75;;
12591;SDS011;6361;52.120;5.108;2022-12-13T15:54:54;43.90;;;25.20;;
12591;SDS011;6361;52.120;5.108;2022-12-13T15:57:29;48.30;;;24.70;;
12591;SDS011;6361;52.120;5.108;2022-12-13T16:05:21;49.53;;;25.17;;
12591;SDS011;6361;52.120;5.108;2022-12-13T16:07:49;43.85;;;24.08;;
12591;SDS011;6361;52.120;5.108;2022-12-13T16:10:16;45.08;;;24.00;;
12591;SDS011;6361;52.120;5.108;2022-12-13T16:12:44;44.45;;;22.95;;
12591;SDS011;6361;52.120;5.108;2022-12-13T16:15:17;47.70;;;25.35;;
12591;SDS011;6361;52.120;5.108;2022-12-13T16:17:54;45.65;;;24.35;;
12591;SDS011;6361;52.120;5.108;2022-12-13T16:20:28;46.35;;;24.17;;
12591;SDS011;6361;52.120;5.108;2022-12-13T16:22:53;43.88;;;23.77;;
12591;SDS011;6361;52.120;5.108;2022-12-13T16:25:19;46.30;;;24.83;;
12591;SDS011;6361;52.120;5.108;2022-12-13T16:27:47;44.45;;;23.70;;
12591;SDS011;6361;52.120;5.108;2022-12-13T16:30:14;42.58;;;22.38;;
12591;SDS011;6361;52.120;5.108;2022-12-13T16:32:40;41.80;;;23.08;;
12591;SDS011;6361;52.120;5.108;2022-12-13T16:35:05;44.25;;;24.42;;
12591;SDS011;6361;52.120;5.108;2022-12-13T16:37:31;43.95;;;24.10;;
12591;SDS011;6361;52.120;5.108;2022-12-13T16:39:56;45.92;;;24.40;;
12591;SDS011;6361;52.120;5.108;2022-12-13T16:42:25;47.60;;;24.75;;
12591;SDS011;6361;52.120;5.108;2022-12-13T16:44:51;48.78;;;24.90;;
12591;SDS011;6361;52.120;5.108;2022-12-13T16:47:16;50.47;;;24.13;;
12591;SDS011;6361;52.120;5.108;2022-12-13T16:49:42;47.08;;;24.85;;
12591;SDS011;6361;52.120;5.108;2022-12-13T16:52:09;47.17;;;24.95;;
12591;SDS011;6361;52.120;5.108;2022-12-13T16:54:35;46.47;;;23.88;;
12591;SDS011;6361;52.120;5.108;2022-12-13T16:57:00;46.30;;;24.05;;
12591;SDS011;6361;52.120;5.108;2022-12-13T16:59:25;47.13;;;23.73;;
12591;SDS011;6361;52.120;5.108;2022-12-13T17:01:51;49.08;;;25.08;;
12591;SDS011;6361;52.120;5.108;2022-12-13T17:04:22;46.30;;;24.27;;
12591;SDS011;6361;52.120;5.108;2022-12-13T17:06:48;48.13;;;23.55;;
12591;SDS011;6361;52.120;5.108;2022-12-13T17:09:14;47.90;;;24.05;;
12591;SDS011;6361;52.120;5.108;2022-12-13T17:11:41;49.28;;;23.42;;
12591;SDS011;6361;52.120;5.108;2022-12-13T17:14:06;44.53;;;23.92;;
12591;SDS011;6361;52.120;5.108;2022-12-13T17:16:32;51.67;;;27.23;;
12591;SDS011;6361;52.120;5.108;2022-12-13T17:18:57;48.13;;;26.02;;
12591;SDS011;6361;52.120;5.108;2022-12-13T17:21:23;53.13;;;26.67;;
12591;SDS011;6361;52.120;5.108;2022-12-13T17:23:53;41.20;;;21.55;;